DLH8RM EDDV-EDDF
Flight info
| Callsign | DLH8RM |
|---|---|
| Flight time | 0h 34m |
| Altitude | 17000 |
| Route | NORTA1G/09R TOLTA T154 ROBAR T152 KERAX KERAX5A |
| Aircraft | A319/M-SDE2E3FGIJ1LORWXYZ/HB1 |
Departure
| Time | 2026-05-07 16:53 |
|---|---|
| Airport | Hannover Airport (EDDV) |
Arrival
| Time | 2026-05-07 17:27 |
|---|---|
| Airport | Frankfurt Main Airport (EDDF) |
| Time | Latitude | Longitude | Altitude | Speed | Heading |
|---|---|---|---|---|---|
| 2026-05-07 16:33 | 52.45845 | 9.69323 | 178 ft | 0 kts | 47° |
| 2026-05-07 16:47 | 52.45840 | 9.69314 | 179 ft | 5 kts | 47° |
| 2026-05-07 16:47 | 52.45817 | 9.69273 | 179 ft | 5 kts | 50° |
| 2026-05-07 16:47 | 52.45803 | 9.69241 | 179 ft | 3 kts | 72° |
| 2026-05-07 16:47 | 52.45801 | 9.69221 | 179 ft | 2 kts | 126° |
| 2026-05-07 16:48 | 52.45809 | 9.69207 | 179 ft | 2 kts | 141° |
| 2026-05-07 16:48 | 52.45813 | 9.69201 | 178 ft | 0 kts | 141° |
| 2026-05-07 16:50 | 52.45812 | 9.69203 | 178 ft | 1 kts | 141° |
| 2026-05-07 16:50 | 52.45790 | 9.69231 | 178 ft | 3 kts | 143° |
| 2026-05-07 16:50 | 52.45782 | 9.69230 | 178 ft | 3 kts | 188° |
| 2026-05-07 16:50 | 52.45730 | 9.69159 | 178 ft | 14 kts | 205° |
| 2026-05-07 16:51 | 52.45632 | 9.69115 | 178 ft | 15 kts | 231° |
| 2026-05-07 16:51 | 52.45628 | 9.68930 | 178 ft | 17 kts | 273° |
| 2026-05-07 16:51 | 52.45635 | 9.68708 | 178 ft | 21 kts | 270° |
| 2026-05-07 16:51 | 52.45641 | 9.68465 | 178 ft | 22 kts | 273° |
| 2026-05-07 16:52 | 52.45621 | 9.68267 | 178 ft | 15 kts | 212° |
| 2026-05-07 16:52 | 52.45556 | 9.68255 | 180 ft | 10 kts | 183° |
| 2026-05-07 16:52 | 52.45485 | 9.68260 | 181 ft | 4 kts | 119° |
| 2026-05-07 16:52 | 52.45485 | 9.68265 | 181 ft | 2 kts | 102° |
| 2026-05-07 16:53 | 52.45470 | 9.68759 | 183 ft | 86 kts | 92° |
| 2026-05-07 16:53 | 52.45430 | 9.70112 | 235 ft | 145 kts | 93° |
| 2026-05-07 16:53 | 52.45366 | 9.71706 | 1167 ft | 138 kts | 92° |
| 2026-05-07 16:53 | 52.45307 | 9.73338 | 1874 ft | 153 kts | 89° |
| 2026-05-07 16:54 | 52.45266 | 9.75186 | 2358 ft | 174 kts | 90° |
| 2026-05-07 16:54 | 52.45220 | 9.77324 | 2823 ft | 200 kts | 90° |
| 2026-05-07 16:54 | 52.45166 | 9.79652 | 3783 ft | 204 kts | 91° |
| 2026-05-07 16:54 | 52.45093 | 9.81974 | 4858 ft | 204 kts | 93° |
| 2026-05-07 16:55 | 52.45009 | 9.84321 | 5694 ft | 213 kts | 94° |
| 2026-05-07 16:55 | 52.44930 | 9.86776 | 6615 ft | 219 kts | 93° |
| 2026-05-07 16:55 | 52.44581 | 9.89208 | 7415 ft | 224 kts | 120° |
| 2026-05-07 16:55 | 52.43541 | 9.91095 | 8246 ft | 226 kts | 148° |
| 2026-05-07 16:56 | 52.42083 | 9.91999 | 9220 ft | 219 kts | 172° |
| 2026-05-07 16:56 | 52.40605 | 9.92336 | 10268 ft | 215 kts | 180° |
| 2026-05-07 16:56 | 52.38108 | 9.91893 | 11543 ft | 220 kts | 192° |
| 2026-05-07 16:57 | 52.36573 | 9.91470 | 12254 ft | 232 kts | 192° |
| 2026-05-07 16:57 | 52.34900 | 9.91013 | 12680 ft | 256 kts | 191° |
| 2026-05-07 16:57 | 52.33045 | 9.90511 | 13089 ft | 281 kts | 191° |
| 2026-05-07 16:57 | 52.31030 | 9.89941 | 13443 ft | 305 kts | 192° |
| 2026-05-07 16:58 | 52.28851 | 9.89335 | 13742 ft | 329 kts | 191° |
| 2026-05-07 16:58 | 52.26508 | 9.88742 | 14035 ft | 350 kts | 190° |
| 2026-05-07 16:58 | 52.24071 | 9.88192 | 14659 ft | 357 kts | 189° |
| 2026-05-07 16:58 | 52.21581 | 9.87678 | 15408 ft | 361 kts | 189° |
| 2026-05-07 16:59 | 52.19064 | 9.87187 | 16170 ft | 365 kts | 188° |
| 2026-05-07 16:59 | 52.16564 | 9.86713 | 16928 ft | 368 kts | 189° |
| 2026-05-07 16:59 | 52.14006 | 9.86230 | 17679 ft | 372 kts | 189° |
| 2026-05-07 16:59 | 52.11418 | 9.85735 | 18433 ft | 375 kts | 189° |
| 2026-05-07 17:00 | 52.08803 | 9.85233 | 19059 ft | 379 kts | 189° |
| 2026-05-07 17:00 | 52.06152 | 9.84724 | 19690 ft | 383 kts | 189° |
| 2026-05-07 17:00 | 52.03500 | 9.84210 | 20302 ft | 387 kts | 189° |
| 2026-05-07 17:00 | 52.00843 | 9.83692 | 20878 ft | 391 kts | 189° |
| 2026-05-07 17:01 | 51.98110 | 9.83164 | 21456 ft | 396 kts | 189° |
| 2026-05-07 17:01 | 51.95360 | 9.82632 | 21949 ft | 400 kts | 189° |
| 2026-05-07 17:01 | 51.92597 | 9.82092 | 22077 ft | 403 kts | 189° |
| 2026-05-07 17:01 | 51.89780 | 9.81537 | 22098 ft | 419 kts | 189° |
| 2026-05-07 17:02 | 51.86851 | 9.80965 | 22096 ft | 425 kts | 188° |
| 2026-05-07 17:02 | 51.83902 | 9.80420 | 22094 ft | 426 kts | 188° |
| 2026-05-07 17:02 | 51.80952 | 9.79917 | 22092 ft | 425 kts | 188° |
| 2026-05-07 17:02 | 51.78034 | 9.79440 | 22093 ft | 425 kts | 187° |
| 2026-05-07 17:03 | 51.75091 | 9.78968 | 22090 ft | 424 kts | 187° |
| 2026-05-07 17:03 | 51.72151 | 9.78495 | 22083 ft | 424 kts | 188° |
| 2026-05-07 17:03 | 51.69210 | 9.78015 | 22094 ft | 424 kts | 188° |
| 2026-05-07 17:03 | 51.66275 | 9.77527 | 22082 ft | 423 kts | 188° |
| 2026-05-07 17:04 | 51.63344 | 9.77036 | 22087 ft | 423 kts | 188° |
| 2026-05-07 17:04 | 51.60416 | 9.76551 | 22084 ft | 423 kts | 188° |
| 2026-05-07 17:04 | 51.57487 | 9.76071 | 22084 ft | 422 kts | 188° |
| 2026-05-07 17:04 | 51.54600 | 9.75595 | 22084 ft | 422 kts | 188° |
| 2026-05-07 17:05 | 51.51672 | 9.75110 | 22081 ft | 422 kts | 188° |
| 2026-05-07 17:05 | 51.48742 | 9.74622 | 22081 ft | 422 kts | 188° |
| 2026-05-07 17:05 | 51.45809 | 9.74133 | 22074 ft | 422 kts | 188° |
| 2026-05-07 17:05 | 51.42898 | 9.73651 | 22075 ft | 422 kts | 188° |
| 2026-05-07 17:06 | 51.39976 | 9.73169 | 22068 ft | 421 kts | 188° |
| 2026-05-07 17:06 | 51.37083 | 9.72691 | 22070 ft | 421 kts | 188° |
| 2026-05-07 17:06 | 51.34160 | 9.72204 | 22067 ft | 421 kts | 188° |
| 2026-05-07 17:06 | 51.31237 | 9.71717 | 22060 ft | 421 kts | 188° |
| 2026-05-07 17:07 | 51.28313 | 9.71232 | 22059 ft | 421 kts | 188° |
| 2026-05-07 17:07 | 51.25392 | 9.70753 | 22053 ft | 422 kts | 188° |
| 2026-05-07 17:07 | 51.22513 | 9.70286 | 22053 ft | 422 kts | 188° |
| 2026-05-07 17:07 | 51.19589 | 9.69815 | 22051 ft | 422 kts | 188° |
| 2026-05-07 17:08 | 51.16661 | 9.69343 | 22050 ft | 422 kts | 188° |
| 2026-05-07 17:08 | 51.13736 | 9.68867 | 22051 ft | 422 kts | 188° |
| 2026-05-07 17:08 | 51.10809 | 9.68384 | 22048 ft | 422 kts | 188° |
| 2026-05-07 17:08 | 51.07957 | 9.67915 | 22070 ft | 400 kts | 188° |
| 2026-05-07 17:09 | 51.05251 | 9.67475 | 21859 ft | 385 kts | 188° |
| 2026-05-07 17:09 | 51.02627 | 9.67048 | 21719 ft | 371 kts | 188° |
| 2026-05-07 17:09 | 51.00125 | 9.66643 | 21479 ft | 360 kts | 188° |
| 2026-05-07 17:09 | 50.97648 | 9.66242 | 21033 ft | 356 kts | 188° |
| 2026-05-07 17:10 | 50.95188 | 9.65841 | 20566 ft | 352 kts | 188° |
| 2026-05-07 17:10 | 50.92755 | 9.65446 | 20105 ft | 349 kts | 188° |
| 2026-05-07 17:10 | 50.90346 | 9.65056 | 19636 ft | 347 kts | 188° |
| 2026-05-07 17:10 | 50.87947 | 9.64669 | 19162 ft | 345 kts | 188° |
| 2026-05-07 17:11 | 50.85563 | 9.64286 | 18689 ft | 343 kts | 187° |
| 2026-05-07 17:11 | 50.83188 | 9.63905 | 18194 ft | 342 kts | 187° |
| 2026-05-07 17:11 | 50.80831 | 9.63527 | 17697 ft | 340 kts | 187° |
| 2026-05-07 17:11 | 50.78487 | 9.63152 | 17234 ft | 336 kts | 187° |
| 2026-05-07 17:12 | 50.76203 | 9.62761 | 16840 ft | 332 kts | 191° |
| 2026-05-07 17:12 | 50.74069 | 9.61663 | 16762 ft | 317 kts | 208° |
| 2026-05-07 17:12 | 50.72143 | 9.59945 | 16677 ft | 319 kts | 211° |
| 2026-05-07 17:12 | 50.70154 | 9.58130 | 16475 ft | 336 kts | 211° |
| 2026-05-07 17:13 | 50.68115 | 9.56260 | 16296 ft | 340 kts | 211° |
| 2026-05-07 17:13 | 50.66058 | 9.54389 | 16049 ft | 340 kts | 211° |
| 2026-05-07 17:13 | 50.64010 | 9.52532 | 15793 ft | 340 kts | 211° |
| 2026-05-07 17:13 | 50.61985 | 9.50697 | 15538 ft | 339 kts | 211° |
| 2026-05-07 17:14 | 50.59945 | 9.48850 | 15289 ft | 338 kts | 211° |
| 2026-05-07 17:14 | 50.57904 | 9.47004 | 15038 ft | 336 kts | 210° |
| 2026-05-07 17:14 | 50.55879 | 9.45172 | 14797 ft | 335 kts | 211° |
| 2026-05-07 17:14 | 50.53853 | 9.43340 | 14547 ft | 334 kts | 211° |
| 2026-05-07 17:15 | 50.51838 | 9.41519 | 14308 ft | 333 kts | 211° |
| 2026-05-07 17:15 | 50.49824 | 9.39700 | 14065 ft | 332 kts | 211° |
| 2026-05-07 17:15 | 50.47825 | 9.37895 | 13822 ft | 331 kts | 211° |
| 2026-05-07 17:15 | 50.45854 | 9.36118 | 13556 ft | 330 kts | 211° |
| 2026-05-07 17:16 | 50.43864 | 9.34328 | 13286 ft | 329 kts | 211° |
| 2026-05-07 17:16 | 50.41877 | 9.32544 | 12997 ft | 328 kts | 211° |
| 2026-05-07 17:16 | 50.39902 | 9.30774 | 12569 ft | 326 kts | 211° |
| 2026-05-07 17:16 | 50.37934 | 9.29014 | 12080 ft | 324 kts | 211° |
| 2026-05-07 17:17 | 50.35982 | 9.27266 | 11609 ft | 321 kts | 211° |
| 2026-05-07 17:17 | 50.34072 | 9.25557 | 11167 ft | 319 kts | 211° |
| 2026-05-07 17:17 | 50.32148 | 9.23836 | 10840 ft | 317 kts | 211° |
| 2026-05-07 17:17 | 50.30244 | 9.22137 | 10852 ft | 306 kts | 211° |
| 2026-05-07 17:18 | 50.28436 | 9.20525 | 10852 ft | 290 kts | 211° |
| 2026-05-07 17:18 | 50.26721 | 9.18995 | 10855 ft | 286 kts | 211° |
| 2026-05-07 17:18 | 50.24990 | 9.17450 | 10600 ft | 286 kts | 211° |
| 2026-05-07 17:18 | 50.23267 | 9.15916 | 10080 ft | 283 kts | 211° |
| 2026-05-07 17:19 | 50.21552 | 9.14392 | 9428 ft | 282 kts | 211° |
| 2026-05-07 17:19 | 50.19898 | 9.12844 | 8769 ft | 278 kts | 218° |
| 2026-05-07 17:19 | 50.18514 | 9.10770 | 8109 ft | 274 kts | 233° |
| 2026-05-07 17:19 | 50.17533 | 9.08248 | 7464 ft | 271 kts | 245° |
| 2026-05-07 17:20 | 50.16847 | 9.05510 | 6791 ft | 270 kts | 251° |
| 2026-05-07 17:20 | 50.16238 | 9.02777 | 6436 ft | 258 kts | 250° |
| 2026-05-07 17:20 | 50.15655 | 9.00246 | 6399 ft | 238 kts | 250° |
| 2026-05-07 17:20 | 50.15099 | 8.97868 | 6303 ft | 229 kts | 250° |
| 2026-05-07 17:21 | 50.14553 | 8.95542 | 5979 ft | 227 kts | 250° |
| 2026-05-07 17:21 | 50.14015 | 8.93246 | 5528 ft | 225 kts | 250° |
| 2026-05-07 17:21 | 50.13485 | 8.90986 | 5157 ft | 219 kts | 250° |
| 2026-05-07 17:21 | 50.12982 | 8.88844 | 5046 ft | 202 kts | 250° |
| 2026-05-07 17:22 | 50.12509 | 8.86830 | 4974 ft | 195 kts | 250° |
| 2026-05-07 17:22 | 50.12050 | 8.84880 | 4945 ft | 185 kts | 250° |
| 2026-05-07 17:22 | 50.11614 | 8.83028 | 4753 ft | 183 kts | 250° |
| 2026-05-07 17:22 | 50.11178 | 8.81177 | 4506 ft | 180 kts | 250° |
| 2026-05-07 17:23 | 50.10750 | 8.79365 | 4258 ft | 176 kts | 250° |
| 2026-05-07 17:23 | 50.10332 | 8.77591 | 4012 ft | 173 kts | 250° |
| 2026-05-07 17:23 | 50.09919 | 8.75842 | 3775 ft | 171 kts | 250° |
| 2026-05-07 17:23 | 50.09509 | 8.74108 | 3537 ft | 170 kts | 250° |
| 2026-05-07 17:24 | 50.09097 | 8.72380 | 3322 ft | 170 kts | 250° |
| 2026-05-07 17:24 | 50.08682 | 8.70650 | 3063 ft | 172 kts | 251° |
| 2026-05-07 17:24 | 50.08252 | 8.68875 | 2778 ft | 177 kts | 251° |
| 2026-05-07 17:24 | 50.07812 | 8.67067 | 2509 ft | 179 kts | 252° |
| 2026-05-07 17:25 | 50.07391 | 8.65279 | 2269 ft | 172 kts | 254° |
| 2026-05-07 17:25 | 50.07030 | 8.63617 | 2076 ft | 150 kts | 254° |
| 2026-05-07 17:25 | 50.06716 | 8.62180 | 1838 ft | 136 kts | 256° |
| 2026-05-07 17:25 | 50.06408 | 8.60817 | 1546 ft | 130 kts | 253° |
| 2026-05-07 17:26 | 50.06090 | 8.59519 | 1349 ft | 128 kts | 252° |
| 2026-05-07 17:26 | 50.05746 | 8.58247 | 1117 ft | 127 kts | 249° |
| 2026-05-07 17:26 | 50.05447 | 8.56943 | 886 ft | 129 kts | 251° |
| 2026-05-07 17:26 | 50.05150 | 8.55645 | 726 ft | 126 kts | 248° |
| 2026-05-07 17:27 | 50.04831 | 8.54378 | 541 ft | 126 kts | 246° |
| 2026-05-07 17:27 | 50.04525 | 8.53106 | 384 ft | 125 kts | 247° |
| 2026-05-07 17:27 | 50.04257 | 8.52015 | 338 ft | 76 kts | 250° |
| 2026-05-07 17:27 | 50.04071 | 8.51490 | 333 ft | 48 kts | 222° |
| 2026-05-07 17:28 | 50.03916 | 8.51395 | 336 ft | 16 kts | 130° |
| 2026-05-07 17:28 | 50.03936 | 8.51567 | 336 ft | 18 kts | 70° |
| 2026-05-07 17:28 | 50.03982 | 8.51764 | 335 ft | 21 kts | 69° |
| 2026-05-07 17:28 | 50.04037 | 8.51985 | 339 ft | 22 kts | 69° |
| 2026-05-07 17:29 | 50.04090 | 8.52214 | 348 ft | 23 kts | 70° |
| 2026-05-07 17:29 | 50.04145 | 8.52442 | 353 ft | 23 kts | 69° |
| 2026-05-07 17:29 | 50.04200 | 8.52674 | 356 ft | 23 kts | 70° |
| 2026-05-07 17:29 | 50.04253 | 8.52900 | 354 ft | 22 kts | 70° |
| 2026-05-07 17:30 | 50.04310 | 8.53134 | 358 ft | 23 kts | 70° |
| 2026-05-07 17:30 | 50.04358 | 8.53349 | 372 ft | 19 kts | 70° |
| 2026-05-07 17:30 | 50.04396 | 8.53527 | 375 ft | 17 kts | 81° |
| 2026-05-07 17:30 | 50.04409 | 8.53722 | 376 ft | 20 kts | 84° |
| 2026-05-07 17:31 | 50.04424 | 8.53941 | 376 ft | 21 kts | 83° |
| 2026-05-07 17:31 | 50.04439 | 8.54175 | 375 ft | 22 kts | 84° |
| 2026-05-07 17:31 | 50.04453 | 8.54423 | 371 ft | 21 kts | 90° |
| 2026-05-07 17:31 | 50.04417 | 8.54625 | 366 ft | 17 kts | 120° |
| 2026-05-07 17:32 | 50.04343 | 8.54744 | 359 ft | 6 kts | 146° |
| 2026-05-07 17:32 | 50.04335 | 8.54752 | 358 ft | 3 kts | 148° |
| 2026-05-07 17:32 | 50.04272 | 8.54796 | 356 ft | 14 kts | 159° |
| 2026-05-07 17:32 | 50.04201 | 8.54833 | 356 ft | 18 kts | 161° |
| 2026-05-07 17:33 | 50.04075 | 8.54906 | 351 ft | 0 kts | 159° |
| 2026-05-07 17:33 | 50.04074 | 8.54907 | 351 ft | 1 kts | 159° |
| 2026-05-07 17:33 | 50.04049 | 8.54922 | 353 ft | 6 kts | 158° |
| 2026-05-07 17:34 | 50.04017 | 8.54988 | 356 ft | 11 kts | 94° |
| 2026-05-07 17:34 | 50.04049 | 8.55141 | 355 ft | 17 kts | 70° |
| 2026-05-07 17:34 | 50.04098 | 8.55350 | 357 ft | 24 kts | 69° |
| 2026-05-07 17:34 | 50.04157 | 8.55603 | 358 ft | 26 kts | 70° |
| 2026-05-07 17:35 | 50.04221 | 8.55865 | 355 ft | 25 kts | 69° |
| 2026-05-07 17:35 | 50.04332 | 8.55937 | 357 ft | 20 kts | 340° |
| 2026-05-07 17:35 | 50.04464 | 8.55927 | 357 ft | 20 kts | 17° |
| 2026-05-07 17:35 | 50.04573 | 8.56044 | 357 ft | 21 kts | 70° |
| 2026-05-07 17:36 | 50.04625 | 8.56260 | 356 ft | 22 kts | 70° |
| 2026-05-07 17:36 | 50.04676 | 8.56482 | 360 ft | 21 kts | 70° |
| 2026-05-07 17:36 | 50.04730 | 8.56610 | 361 ft | 10 kts | 52° |
| 2026-05-07 17:36 | 50.04781 | 8.56601 | 357 ft | 8 kts | 338° |
| 2026-05-07 17:37 | 50.04802 | 8.56588 | 359 ft | 1 kts | 337° |
| 2026-05-07 17:37 | 50.04808 | 8.56585 | 358 ft | 0 kts | 337° |